createdAt,value
2023-01-15T00:00:02.858Z,7.93
2023-01-15T00:01:02.885Z,7.95
2023-01-15T00:02:02.845Z,7.91
2023-01-15T00:03:02.830Z,7.79
2023-01-15T00:04:02.876Z,7.73
2023-01-15T00:05:02.861Z,7.79
2023-01-15T00:06:02.830Z,7.66
2023-01-15T00:07:02.825Z,7.61
2023-01-15T00:08:02.809Z,7.50
2023-01-15T00:09:02.805Z,7.50
2023-01-15T00:10:02.799Z,7.53
2023-01-15T00:11:02.800Z,7.53
2023-01-15T00:12:02.807Z,7.45
2023-01-15T00:13:02.793Z,7.51
2023-01-15T00:14:02.789Z,7.51
2023-01-15T00:15:02.783Z,7.40
2023-01-15T00:16:02.796Z,7.43
2023-01-15T00:17:02.768Z,7.38
2023-01-15T00:18:02.776Z,7.40
2023-01-15T00:19:02.777Z,7.43
2023-01-15T00:20:02.780Z,7.47
2023-01-15T00:21:02.751Z,7.39
2023-01-15T00:22:02.745Z,7.50
2023-01-15T00:23:02.742Z,7.48
2023-01-15T00:24:02.737Z,7.40
2023-01-15T00:25:02.734Z,7.45
2023-01-15T00:26:02.728Z,7.45
2023-01-15T00:27:02.732Z,7.48
2023-01-15T00:28:02.717Z,7.48
2023-01-15T00:29:02.731Z,7.47
2023-01-15T00:30:02.734Z,7.48
2023-01-15T00:31:02.760Z,7.53
2023-01-15T00:32:02.701Z,7.53
2023-01-15T00:33:02.711Z,7.53
2023-01-15T00:34:02.691Z,7.51
2023-01-15T00:35:02.684Z,7.47
2023-01-15T00:36:02.690Z,7.53
2023-01-15T00:37:02.687Z,7.51
2023-01-15T00:38:02.674Z,7.50
2023-01-15T00:39:02.668Z,7.53
2023-01-15T00:40:02.674Z,7.51
2023-01-15T00:41:02.655Z,7.50
2023-01-15T00:42:02.657Z,7.40
2023-01-15T00:43:02.651Z,7.48
2023-01-15T00:44:02.669Z,7.47
2023-01-15T00:45:02.641Z,7.50
2023-01-15T00:46:02.655Z,7.43
2023-01-15T00:47:02.630Z,7.48
2023-01-15T00:48:02.634Z,7.45
2023-01-15T00:49:02.629Z,7.48
2023-01-15T00:50:02.627Z,7.53
2023-01-15T00:51:02.611Z,7.51
2023-01-15T00:52:02.612Z,7.51
2023-01-15T00:53:02.599Z,7.47
2023-01-15T00:54:02.605Z,7.47
2023-01-15T00:55:02.592Z,7.48
2023-01-15T00:56:02.590Z,7.51
2023-01-15T00:57:02.589Z,7.48
2023-01-15T00:58:02.594Z,7.48
2023-01-15T00:59:02.574Z,7.47
2023-01-15T01:00:02.574Z,7.53
2023-01-15T01:01:02.738Z,7.50
2023-01-15T01:02:02.813Z,7.48
2023-01-15T01:03:02.556Z,7.54
2023-01-15T01:04:02.555Z,7.51
2023-01-15T01:05:02.554Z,7.47
2023-01-15T01:06:02.545Z,7.43
2023-01-15T01:07:02.541Z,7.51
2023-01-15T01:08:02.553Z,7.43
2023-01-15T01:09:02.532Z,7.48
2023-01-15T01:10:02.524Z,7.47
2023-01-15T01:11:02.518Z,7.50
2023-01-15T01:12:02.516Z,7.56
2023-01-15T01:13:02.508Z,7.47
2023-01-15T01:14:02.920Z,7.50
2023-01-15T01:15:02.506Z,7.47
2023-01-15T01:16:02.528Z,7.51
2023-01-15T01:17:02.491Z,7.48
2023-01-15T01:18:02.495Z,7.51
2023-01-15T01:19:02.479Z,7.56
2023-01-15T01:20:02.478Z,7.43
2023-01-15T01:21:02.473Z,7.51
2023-01-15T01:22:02.480Z,7.53
2023-01-15T01:23:02.461Z,7.47
2023-01-15T01:24:02.468Z,7.51
2023-01-15T01:25:02.455Z,7.50
2023-01-15T01:26:02.451Z,7.54
2023-01-15T01:27:02.442Z,7.56
2023-01-15T01:28:02.449Z,7.50
2023-01-15T01:29:02.435Z,7.50
2023-01-15T01:30:02.439Z,7.54
2023-01-15T01:31:02.469Z,7.45
2023-01-15T01:32:02.428Z,7.50
2023-01-15T01:33:02.419Z,7.58
2023-01-15T01:34:02.417Z,7.61
2023-01-15T01:35:02.408Z,7.66
2023-01-15T01:36:02.429Z,7.66
2023-01-15T01:37:02.403Z,7.56
2023-01-15T01:38:02.397Z,7.58
2023-01-15T01:39:02.389Z,7.67
2023-01-15T01:40:02.388Z,7.60
2023-01-15T01:41:02.379Z,7.57
2023-01-15T01:42:02.388Z,7.69
2023-01-15T01:43:02.374Z,7.70
2023-01-15T01:44:02.369Z,7.63
2023-01-15T01:45:02.365Z,7.66
2023-01-15T01:46:02.418Z,7.58
2023-01-15T01:47:02.356Z,7.73
2023-01-15T01:48:02.352Z,7.75
2023-01-15T01:49:02.351Z,7.60
2023-01-15T01:50:02.343Z,7.58
2023-01-15T01:51:02.338Z,7.66
2023-01-15T01:52:02.348Z,7.63
2023-01-15T01:53:02.325Z,7.61
2023-01-15T01:54:02.327Z,7.53
2023-01-15T01:55:02.317Z,7.50
2023-01-15T01:56:02.321Z,7.48
2023-01-15T01:57:02.309Z,7.53
2023-01-15T01:58:02.304Z,7.51
2023-01-15T01:59:02.301Z,7.50
2023-01-15T02:00:02.297Z,7.50
2023-01-15T02:01:02.390Z,7.50
2023-01-15T02:02:02.353Z,7.50
2023-01-15T02:03:02.285Z,7.50
2023-01-15T02:04:02.285Z,7.50
2023-01-15T02:05:02.272Z,7.51
2023-01-15T02:06:02.269Z,7.47
2023-01-15T02:07:02.266Z,7.51
2023-01-15T02:08:02.261Z,7.47
2023-01-15T02:09:02.253Z,7.40
2023-01-15T02:10:02.264Z,7.42
2023-01-15T02:11:02.248Z,7.47
2023-01-15T02:12:02.260Z,7.42
2023-01-15T02:13:02.235Z,7.42
2023-01-15T02:14:02.253Z,7.48
2023-01-15T02:15:02.233Z,7.40
2023-01-15T02:16:02.267Z,7.39
2023-01-15T02:17:02.218Z,7.40
2023-01-15T02:18:02.243Z,7.38
2023-01-15T02:19:02.210Z,7.39
2023-01-15T02:20:02.221Z,7.40
2023-01-15T02:21:02.198Z,7.42
2023-01-15T02:22:02.197Z,7.43
2023-01-15T02:23:02.191Z,7.47
2023-01-15T02:24:03.328Z,7.45
2023-01-15T02:25:02.188Z,7.48
2023-01-15T02:26:02.187Z,7.50
2023-01-15T02:27:02.178Z,7.48
2023-01-15T02:28:02.178Z,7.47
2023-01-15T02:29:02.162Z,7.51
2023-01-15T02:30:02.172Z,7.40
2023-01-15T02:31:02.154Z,7.45
2023-01-15T02:32:02.152Z,7.53
2023-01-15T02:33:02.142Z,7.51
2023-01-15T02:34:02.167Z,7.51
2023-01-15T02:35:02.144Z,7.45
2023-01-15T02:36:02.138Z,7.47
2023-01-15T02:37:02.127Z,7.45
2023-01-15T02:38:02.137Z,7.40
2023-01-15T02:39:02.128Z,7.35
2023-01-15T02:40:02.113Z,7.36
2023-01-15T02:41:02.111Z,7.32
2023-01-15T02:42:02.115Z,7.47
2023-01-15T02:43:02.104Z,7.43
2023-01-15T02:44:02.097Z,7.51
2023-01-15T02:45:02.101Z,7.40
2023-01-15T02:46:02.225Z,7.43
2023-01-15T02:47:02.089Z,7.47
2023-01-15T02:48:02.080Z,7.43
2023-01-15T02:49:02.087Z,7.42
2023-01-15T02:50:02.082Z,7.43
2023-01-15T02:51:02.075Z,7.47
2023-01-15T02:52:02.073Z,7.48
2023-01-15T02:53:02.066Z,7.51
2023-01-15T02:54:02.057Z,7.45
2023-01-15T02:55:02.051Z,7.45
2023-01-15T02:56:02.039Z,7.48
2023-01-15T02:57:02.037Z,7.48
2023-01-15T02:58:02.036Z,7.51
2023-01-15T02:59:02.032Z,7.54
2023-01-15T03:00:02.023Z,7.43
2023-01-15T03:01:02.124Z,7.40
2023-01-15T03:02:02.121Z,7.38
2023-01-15T03:03:02.015Z,7.35
2023-01-15T03:04:02.004Z,7.36
2023-01-15T03:05:02.001Z,7.32
2023-01-15T03:06:01.999Z,7.33
2023-01-15T03:07:01.993Z,7.35
2023-01-15T03:08:01.987Z,7.33
2023-01-15T03:09:01.993Z,7.31
2023-01-15T03:10:01.993Z,7.35
2023-01-15T03:11:01.974Z,7.36
2023-01-15T03:12:01.968Z,7.39
2023-01-15T03:13:01.965Z,7.45
2023-01-15T03:14:01.965Z,7.39
2023-01-15T03:15:01.957Z,7.35
2023-01-15T03:16:01.951Z,7.39
2023-01-15T03:17:01.948Z,7.42
2023-01-15T03:18:01.940Z,7.43
2023-01-15T03:19:01.937Z,7.32
2023-01-15T03:20:01.932Z,7.36
2023-01-15T03:21:01.926Z,7.31
2023-01-15T03:22:01.928Z,7.36
2023-01-15T03:23:01.922Z,7.28
2023-01-15T03:24:01.923Z,7.15
2023-01-15T03:25:01.913Z,7.29
2023-01-15T03:26:01.909Z,7.17
2023-01-15T03:27:01.917Z,7.23
2023-01-15T03:28:01.914Z,7.18
2023-01-15T03:29:01.894Z,7.25
2023-01-15T03:30:01.890Z,7.21
2023-01-15T03:31:01.925Z,7.29
2023-01-15T03:32:01.876Z,7.18
2023-01-15T03:33:01.884Z,7.21
2023-01-15T03:34:01.874Z,7.20
2023-01-15T03:35:01.867Z,7.29
2023-01-15T03:36:01.872Z,7.17
2023-01-15T03:37:02.060Z,7.20
2023-01-15T03:38:01.855Z,7.25
2023-01-15T03:39:01.854Z,7.23
2023-01-15T03:40:01.844Z,7.21
2023-01-15T03:41:01.837Z,7.20
2023-01-15T03:42:01.833Z,7.21
2023-01-15T03:43:01.828Z,7.23
2023-01-15T03:44:01.824Z,7.31
2023-01-15T03:45:01.820Z,7.20
2023-01-15T03:46:01.865Z,7.23
2023-01-15T03:47:01.814Z,7.23
2023-01-15T03:48:01.806Z,7.21
2023-01-15T03:49:01.797Z,7.21
2023-01-15T03:50:01.867Z,7.25
2023-01-15T03:51:01.797Z,7.23
2023-01-15T03:52:01.792Z,7.36
2023-01-15T03:53:01.805Z,7.29
2023-01-15T03:54:01.815Z,7.33
2023-01-15T03:55:01.779Z,7.31
2023-01-15T03:56:01.775Z,7.24
2023-01-15T03:57:01.769Z,7.32
2023-01-15T03:58:01.788Z,7.36
2023-01-15T03:59:01.768Z,7.38
2023-01-15T04:00:01.772Z,7.31
2023-01-15T04:01:01.878Z,7.31
2023-01-15T04:02:01.925Z,7.35
2023-01-15T04:03:01.741Z,7.38
2023-01-15T04:04:01.752Z,7.29
2023-01-15T04:05:01.737Z,7.35
2023-01-15T04:06:01.742Z,7.23
2023-01-15T04:07:01.719Z,7.31
2023-01-15T04:08:01.712Z,7.28
2023-01-15T04:09:01.710Z,7.31
2023-01-15T04:10:01.706Z,7.28
2023-01-15T04:11:01.700Z,7.29
2023-01-15T04:12:01.695Z,7.28
2023-01-15T04:13:01.689Z,7.24
2023-01-15T04:14:01.684Z,7.24
2023-01-15T04:15:01.694Z,7.20
2023-01-15T04:16:01.720Z,7.25
2023-01-15T04:17:01.671Z,7.18
2023-01-15T04:18:01.665Z,7.21
2023-01-15T04:19:01.665Z,7.25
2023-01-15T04:20:01.656Z,7.21
2023-01-15T04:21:01.660Z,7.23
2023-01-15T04:22:01.659Z,7.20
2023-01-15T04:23:01.644Z,7.24
2023-01-15T04:24:01.644Z,7.17
2023-01-15T04:25:01.692Z,7.17
2023-01-15T04:26:01.640Z,7.24
2023-01-15T04:27:01.626Z,7.24
2023-01-15T04:28:01.623Z,7.21
2023-01-15T04:29:01.619Z,7.18
2023-01-15T04:30:01.626Z,7.18
2023-01-15T04:31:01.659Z,7.31
2023-01-15T04:32:01.600Z,7.21
2023-01-15T04:33:01.622Z,7.23
2023-01-15T04:34:01.600Z,7.15
2023-01-15T04:35:01.596Z,7.18
2023-01-15T04:36:01.580Z,7.21
2023-01-15T04:37:01.742Z,7.17
2023-01-15T04:38:01.586Z,7.14
2023-01-15T04:39:01.575Z,7.20
2023-01-15T04:40:01.588Z,7.28
2023-01-15T04:41:01.567Z,7.17
2023-01-15T04:42:01.561Z,7.24
2023-01-15T04:43:01.552Z,7.20
2023-01-15T04:44:01.545Z,7.21
2023-01-15T04:45:01.565Z,7.23
2023-01-15T04:46:01.589Z,7.20
2023-01-15T04:47:01.559Z,7.18
2023-01-15T04:48:01.530Z,7.17
2023-01-15T04:49:01.543Z,7.17
2023-01-15T04:50:01.581Z,7.24
2023-01-15T04:51:01.540Z,7.18
2023-01-15T04:52:01.506Z,7.29
2023-01-15T04:53:01.538Z,7.23
2023-01-15T04:54:01.499Z,7.29
2023-01-15T04:55:01.496Z,7.20
2023-01-15T04:56:01.489Z,7.21
2023-01-15T04:57:01.510Z,7.21
2023-01-15T04:58:01.488Z,7.23
2023-01-15T04:59:01.482Z,7.20
2023-01-15T05:00:01.473Z,7.20
2023-01-15T05:01:01.609Z,7.17
2023-01-15T05:02:05.708Z,7.21
2023-01-15T05:03:01.468Z,7.23
2023-01-15T05:04:01.458Z,7.23
2023-01-15T05:05:01.451Z,7.29
2023-01-15T05:06:01.442Z,7.20
2023-01-15T05:07:01.437Z,7.20
2023-01-15T05:08:01.440Z,7.25
2023-01-15T05:09:01.434Z,7.23
2023-01-15T05:10:01.424Z,7.23
2023-01-15T05:11:01.423Z,7.21
2023-01-15T05:12:01.414Z,7.23
2023-01-15T05:13:01.411Z,7.20
2023-01-15T05:14:01.402Z,7.20
2023-01-15T05:15:01.401Z,7.15
2023-01-15T05:16:01.450Z,7.20
2023-01-15T05:17:01.395Z,7.18
2023-01-15T05:18:01.384Z,7.20
2023-01-15T05:19:01.381Z,7.20
2023-01-15T05:20:01.375Z,7.20
2023-01-15T05:21:01.376Z,7.14
2023-01-15T05:22:01.371Z,7.21
2023-01-15T05:23:01.364Z,7.15
2023-01-15T05:24:01.360Z,7.17
2023-01-15T05:25:01.360Z,7.10
2023-01-15T05:26:01.351Z,7.17
2023-01-15T05:27:01.344Z,7.15
2023-01-15T05:28:01.345Z,7.21
2023-01-15T05:29:01.356Z,7.15
2023-01-15T05:30:01.330Z,7.17
2023-01-15T05:31:01.353Z,7.14
2023-01-15T05:32:01.334Z,7.17
2023-01-15T05:33:01.321Z,7.15
2023-01-15T05:34:01.314Z,7.20
2023-01-15T05:35:01.314Z,7.20
2023-01-15T05:36:01.302Z,7.21
2023-01-15T05:37:01.646Z,7.14
2023-01-15T05:38:01.289Z,7.15
2023-01-15T05:39:01.289Z,7.21
2023-01-15T05:40:01.282Z,7.14
2023-01-15T05:41:01.276Z,7.11
2023-01-15T05:42:01.271Z,7.20
2023-01-15T05:43:01.297Z,7.21
2023-01-15T05:44:01.273Z,7.18
2023-01-15T05:45:01.280Z,7.05
2023-01-15T05:46:01.315Z,7.06
2023-01-15T05:47:01.251Z,7.21
2023-01-15T05:48:01.251Z,7.21
2023-01-15T05:49:01.241Z,7.17
2023-01-15T05:50:01.233Z,7.17
2023-01-15T05:51:01.237Z,7.15
2023-01-15T05:52:01.231Z,7.18
2023-01-15T05:53:01.217Z,7.18
2023-01-15T05:54:01.211Z,7.20
2023-01-15T05:55:01.212Z,7.25
2023-01-15T05:56:01.209Z,7.17
2023-01-15T05:57:01.219Z,7.18
2023-01-15T05:58:01.197Z,7.03
2023-01-15T05:59:01.189Z,7.10
2023-01-15T06:00:01.195Z,7.10
2023-01-15T06:01:01.266Z,7.17
2023-01-15T06:02:01.193Z,7.14
2023-01-15T06:03:01.234Z,7.17
2023-01-15T06:04:01.227Z,7.06
2023-01-15T06:05:01.174Z,7.14
2023-01-15T06:06:01.155Z,7.17
2023-01-15T06:07:01.172Z,7.18
2023-01-15T06:08:01.441Z,7.18
2023-01-15T06:09:01.143Z,7.07
2023-01-15T06:10:01.145Z,7.14
2023-01-15T06:11:01.152Z,7.20
2023-01-15T06:12:01.132Z,7.17
2023-01-15T06:13:01.121Z,7.03
2023-01-15T06:14:01.118Z,7.02
2023-01-15T06:15:01.113Z,7.02
2023-01-15T06:16:01.151Z,7.03
2023-01-15T06:17:01.112Z,7.15
2023-01-15T06:18:01.105Z,7.05
2023-01-15T06:19:01.093Z,7.05
2023-01-15T06:20:01.088Z,7.02
2023-01-15T06:21:01.083Z,7.17
2023-01-15T06:22:01.088Z,7.20
2023-01-15T06:23:01.080Z,7.14
2023-01-15T06:24:01.077Z,7.15
2023-01-15T06:25:01.073Z,7.17
2023-01-15T06:26:01.054Z,7.18
2023-01-15T06:27:01.058Z,7.18
2023-01-15T06:28:01.046Z,7.18
2023-01-15T06:29:01.048Z,7.20
2023-01-15T06:30:01.041Z,7.20
2023-01-15T06:31:01.101Z,7.15
2023-01-15T06:32:01.044Z,7.17
2023-01-15T06:33:01.038Z,7.13
2023-01-15T06:34:01.030Z,7.17
2023-01-15T06:35:01.014Z,7.17
2023-01-15T06:36:01.014Z,7.17
2023-01-15T06:37:01.021Z,7.17
2023-01-15T06:38:01.153Z,7.18
2023-01-15T06:39:00.992Z,7.15
2023-01-15T06:40:00.987Z,7.13
2023-01-15T06:41:00.985Z,7.05
2023-01-15T06:42:00.979Z,7.21
2023-01-15T06:43:00.976Z,7.03
2023-01-15T06:44:00.970Z,7.00
2023-01-15T06:45:00.966Z,7.02
2023-01-15T06:46:00.963Z,7.10
2023-01-15T06:47:00.955Z,7.06
2023-01-15T06:48:00.949Z,7.06
2023-01-15T06:49:00.959Z,7.07
2023-01-15T06:50:00.943Z,7.14
2023-01-15T06:51:00.934Z,6.99
2023-01-15T06:52:00.931Z,7.10
2023-01-15T06:53:00.928Z,7.03
2023-01-15T06:54:00.951Z,7.06
2023-01-15T06:55:00.926Z,7.05
2023-01-15T06:56:00.925Z,7.02
2023-01-15T06:57:00.903Z,7.10
2023-01-15T06:58:00.911Z,7.05
2023-01-15T06:59:00.898Z,7.05
2023-01-15T07:00:00.893Z,7.14
2023-01-15T07:01:01.017Z,7.05
2023-01-15T07:02:00.890Z,7.02
2023-01-15T07:03:00.878Z,7.15
2023-01-15T07:04:00.911Z,7.07
2023-01-15T07:05:00.872Z,7.10
2023-01-15T07:06:00.868Z,7.11
2023-01-15T07:07:00.855Z,7.02
2023-01-15T07:08:00.854Z,7.07
2023-01-15T07:09:00.849Z,7.05
2023-01-15T07:10:00.860Z,7.07
2023-01-15T07:11:00.833Z,7.06
2023-01-15T07:12:00.837Z,7.07
2023-01-15T07:13:00.829Z,7.03
2023-01-15T07:14:00.831Z,7.06
2023-01-15T07:15:00.820Z,7.02
2023-01-15T07:16:00.881Z,7.05
2023-01-15T07:17:00.813Z,7.05
2023-01-15T07:18:00.805Z,7.11
2023-01-15T07:19:00.800Z,7.06
2023-01-15T07:20:00.793Z,7.06
2023-01-15T07:21:00.859Z,6.96
2023-01-15T07:22:00.787Z,7.07
2023-01-15T07:23:00.774Z,7.05
2023-01-15T07:24:00.772Z,6.99
2023-01-15T07:25:00.763Z,7.00
2023-01-15T07:26:00.766Z,7.02
2023-01-15T07:27:00.758Z,7.02
2023-01-15T07:28:00.752Z,7.00
2023-01-15T07:29:00.752Z,6.99
2023-01-15T07:30:00.743Z,6.99
2023-01-15T07:31:00.842Z,6.96
2023-01-15T07:32:00.744Z,6.96
2023-01-15T07:33:00.728Z,7.02
2023-01-15T07:34:00.724Z,7.06
2023-01-15T07:35:00.721Z,7.07
2023-01-15T07:36:00.713Z,7.11
2023-01-15T07:37:00.711Z,7.15
2023-01-15T07:38:00.709Z,7.07
2023-01-15T07:39:00.717Z,7.07
2023-01-15T07:40:00.689Z,7.13
2023-01-15T07:41:00.691Z,7.05
2023-01-15T07:42:00.685Z,7.05
2023-01-15T07:43:00.682Z,7.07
2023-01-15T07:44:00.676Z,7.06
2023-01-15T07:45:00.670Z,7.02
2023-01-15T07:46:00.725Z,7.02
2023-01-15T07:47:00.657Z,6.95
2023-01-15T07:48:00.670Z,7.03
2023-01-15T07:49:00.647Z,7.05
2023-01-15T07:50:00.641Z,7.00
2023-01-15T07:51:00.637Z,6.99
2023-01-15T07:52:00.636Z,7.00
2023-01-15T07:53:00.623Z,6.93
2023-01-15T07:54:00.640Z,6.88
2023-01-15T07:55:00.615Z,6.96
2023-01-15T07:56:00.612Z,7.02
2023-01-15T07:57:00.603Z,7.05
2023-01-15T07:58:00.629Z,6.97
2023-01-15T07:59:00.596Z,7.02
2023-01-15T08:00:00.592Z,7.05
2023-01-15T08:01:00.689Z,7.07
2023-01-15T08:02:00.744Z,7.11
2023-01-15T08:03:00.579Z,7.05
2023-01-15T08:04:00.644Z,7.10
2023-01-15T08:05:00.572Z,7.05
2023-01-15T08:06:00.561Z,7.06
2023-01-15T08:07:00.559Z,7.06
2023-01-15T08:08:00.552Z,7.07
2023-01-15T08:09:00.551Z,7.06
2023-01-15T08:10:00.551Z,7.11
2023-01-15T08:11:00.535Z,7.02
2023-01-15T08:12:00.536Z,7.05
2023-01-15T08:13:00.543Z,7.03
2023-01-15T08:14:00.871Z,7.05
2023-01-15T08:15:00.514Z,7.03
2023-01-15T08:16:00.522Z,7.05
2023-01-15T08:17:00.503Z,7.02
2023-01-15T08:18:00.511Z,7.03
2023-01-15T08:19:00.499Z,7.07
2023-01-15T08:20:00.491Z,7.06
2023-01-15T08:21:00.488Z,7.02
2023-01-15T08:22:00.480Z,7.05
2023-01-15T08:23:00.477Z,7.14
2023-01-15T08:24:00.523Z,7.03
2023-01-15T08:25:00.481Z,7.10
2023-01-15T08:26:00.462Z,7.14
2023-01-15T08:27:00.457Z,7.06
2023-01-15T08:28:00.453Z,6.99
2023-01-15T08:29:00.442Z,7.03
2023-01-15T08:30:00.441Z,6.97
2023-01-15T08:31:00.438Z,6.99
2023-01-15T08:32:03.081Z,6.97
2023-01-15T08:33:00.427Z,7.02
2023-01-15T08:34:00.422Z,6.92
2023-01-15T08:35:00.418Z,6.89
2023-01-15T08:36:00.411Z,6.96
2023-01-15T08:37:00.513Z,6.89
2023-01-15T08:38:00.404Z,6.78
2023-01-15T08:39:00.399Z,6.85
2023-01-15T08:40:00.410Z,6.78
2023-01-15T08:41:00.385Z,6.82
2023-01-15T08:42:00.379Z,6.81
2023-01-15T08:43:00.374Z,6.78
2023-01-15T08:44:00.369Z,6.84
2023-01-15T08:45:00.366Z,6.85
2023-01-15T08:46:00.412Z,6.74
2023-01-15T08:47:00.364Z,6.84
2023-01-15T08:48:00.352Z,6.85
2023-01-15T08:49:00.342Z,6.84
2023-01-15T08:50:00.371Z,6.74
2023-01-15T08:51:00.336Z,6.78
2023-01-15T08:52:00.328Z,6.82
2023-01-15T08:53:00.322Z,6.81
2023-01-15T08:54:00.319Z,6.72
2023-01-15T08:55:00.329Z,6.70
2023-01-15T08:56:00.312Z,6.69
2023-01-15T08:57:00.309Z,6.62
2023-01-15T08:58:00.301Z,6.69
2023-01-15T08:59:00.295Z,6.70
2023-01-15T09:00:00.291Z,6.59
2023-01-15T09:01:00.407Z,6.56
2023-01-15T09:02:00.388Z,6.57
2023-01-15T09:03:00.272Z,6.59
2023-01-15T09:04:00.271Z,6.54
2023-01-15T09:05:00.386Z,6.62
2023-01-15T09:06:00.259Z,6.51
2023-01-15T09:07:00.318Z,6.56
2023-01-15T09:08:00.252Z,6.56
2023-01-15T09:09:00.241Z,6.57
2023-01-15T09:10:00.240Z,6.57
2023-01-15T09:11:00.231Z,6.48
2023-01-15T09:12:00.229Z,6.54
2023-01-15T09:13:00.221Z,6.46
2023-01-15T09:14:00.570Z,6.51
2023-01-15T09:15:02.129Z,6.45
2023-01-15T09:16:00.210Z,6.41
2023-01-15T09:17:00.198Z,6.46
2023-01-15T09:18:00.198Z,6.46
2023-01-15T09:19:00.188Z,6.46
2023-01-15T09:20:00.296Z,6.51
2023-01-15T09:21:00.177Z,6.48
2023-01-15T09:22:00.205Z,6.41
2023-01-15T09:23:00.168Z,6.46
2023-01-15T09:24:00.178Z,6.48
2023-01-15T09:25:00.159Z,6.41
2023-01-15T09:26:00.177Z,6.39
2023-01-15T09:27:00.147Z,6.41
2023-01-15T09:28:00.141Z,6.48
2023-01-15T09:29:00.138Z,6.51
2023-01-15T09:30:00.135Z,6.48
2023-01-15T09:31:00.191Z,6.46
2023-01-15T09:32:00.150Z,6.39
2023-01-15T09:33:00.120Z,6.42
2023-01-15T09:34:00.145Z,6.51
2023-01-15T09:35:00.125Z,6.45
2023-01-15T09:36:00.119Z,6.45
2023-01-15T09:37:00.132Z,6.45
2023-01-15T09:38:00.109Z,6.46
2023-01-15T09:39:00.095Z,6.60
2023-01-15T09:40:00.099Z,6.57
2023-01-15T09:41:00.107Z,6.60
2023-01-15T09:42:00.095Z,6.57
2023-01-15T09:43:00.081Z,6.56
2023-01-15T09:44:00.088Z,6.59
2023-01-15T09:45:00.061Z,6.64
2023-01-15T09:46:00.092Z,6.70
2023-01-15T09:47:00.043Z,6.62
2023-01-15T09:48:00.045Z,6.64
2023-01-15T09:49:00.032Z,6.78
2023-01-15T09:50:00.043Z,6.77
2023-01-15T09:51:00.030Z,6.78
2023-01-15T09:52:00.021Z,6.69
2023-01-15T09:53:00.015Z,6.77
2023-01-15T09:54:00.017Z,6.66
2023-01-15T09:55:00.021Z,6.72
2023-01-15T09:56:00.011Z,6.69
2023-01-15T09:57:00.002Z,6.75
2023-01-15T09:58:00.144Z,6.74
2023-01-15T09:58:59.983Z,6.78
2023-01-15T09:59:59.983Z,6.74
2023-01-15T10:01:00.042Z,6.77
2023-01-15T10:01:59.968Z,6.74
2023-01-15T10:03:00.044Z,6.78
2023-01-15T10:04:00.047Z,6.72
2023-01-15T10:04:59.947Z,6.74
2023-01-15T10:05:59.959Z,6.81
2023-01-15T10:06:59.939Z,6.88
2023-01-15T10:07:59.936Z,6.93
2023-01-15T10:08:59.937Z,6.89
2023-01-15T10:09:59.925Z,6.92
2023-01-15T10:10:59.916Z,6.89
2023-01-15T10:11:59.914Z,7.00
2023-01-15T10:12:59.906Z,7.00
2023-01-15T10:13:59.905Z,7.00
2023-01-15T10:14:59.895Z,7.05
2023-01-15T10:15:59.952Z,7.10
2023-01-15T10:16:59.887Z,7.07
2023-01-15T10:17:59.895Z,7.06
2023-01-15T10:18:59.879Z,7.15
2023-01-15T10:19:59.877Z,7.17
2023-01-15T10:20:59.865Z,7.18
2023-01-15T10:21:59.865Z,7.20
2023-01-15T10:23:00.012Z,7.21
2023-01-15T10:23:59.855Z,7.17
2023-01-15T10:24:59.843Z,7.23
2023-01-15T10:25:59.846Z,7.23
2023-01-15T10:26:59.839Z,7.17
2023-01-15T10:27:59.831Z,7.20
2023-01-15T10:28:59.834Z,7.25
2023-01-15T10:29:59.821Z,7.31
2023-01-15T10:30:59.822Z,7.33
2023-01-15T10:31:59.811Z,7.51
2023-01-15T10:33:02.663Z,7.42
2023-01-15T10:33:59.814Z,7.47
2023-01-15T10:34:59.794Z,7.48
2023-01-15T10:35:59.793Z,7.51
2023-01-15T10:36:59.780Z,7.50
2023-01-15T10:37:59.785Z,7.47
2023-01-15T10:38:59.775Z,7.60
2023-01-15T10:39:59.781Z,7.58
2023-01-15T10:40:59.760Z,7.66
2023-01-15T10:41:59.761Z,7.60
2023-01-15T10:42:59.753Z,7.58
2023-01-15T10:43:59.750Z,7.66
2023-01-15T10:44:59.739Z,7.53
2023-01-15T10:45:59.782Z,7.56
2023-01-15T10:46:59.732Z,7.53
2023-01-15T10:47:59.725Z,7.51
2023-01-15T10:48:59.720Z,7.51
2023-01-15T10:49:59.721Z,7.48
2023-01-15T10:50:59.716Z,7.53
2023-01-15T10:51:59.707Z,7.50
2023-01-15T10:52:59.719Z,7.51
2023-01-15T10:53:59.700Z,7.47
2023-01-15T10:54:59.689Z,7.40
2023-01-15T10:55:59.689Z,7.42
2023-01-15T10:56:59.678Z,7.53
2023-01-15T10:58:09.781Z,7.47
2023-01-15T10:58:59.669Z,7.45
2023-01-15T10:59:59.681Z,7.51
2023-01-15T11:00:59.767Z,7.50
2023-01-15T11:01:59.824Z,7.48
2023-01-15T11:02:59.677Z,7.51
2023-01-15T11:03:59.663Z,7.50
2023-01-15T11:04:59.648Z,7.48
2023-01-15T11:05:59.654Z,7.60
2023-01-15T11:06:59.630Z,7.57
2023-01-15T11:08:39.461Z,7.56
2023-01-15T11:09:09.657Z,7.53
2023-01-15T11:09:59.613Z,7.56
2023-01-15T11:10:59.606Z,7.63
2023-01-15T11:11:59.622Z,7.66
2023-01-15T11:12:59.601Z,7.58
2023-01-15T11:13:59.589Z,7.61
2023-01-15T11:14:59.589Z,7.56
2023-01-15T11:15:59.651Z,7.61
2023-01-15T11:16:59.576Z,7.66
2023-01-15T11:17:59.571Z,7.61
2023-01-15T11:18:59.921Z,7.63
2023-01-15T11:19:59.573Z,7.72
2023-01-15T11:20:59.557Z,7.63
2023-01-15T11:21:59.556Z,7.69
2023-01-15T11:22:59.545Z,7.73
2023-01-15T11:23:59.555Z,7.63
2023-01-15T11:24:59.551Z,7.66
2023-01-15T11:25:59.567Z,7.67
2023-01-15T11:26:59.543Z,7.61
2023-01-15T11:27:59.605Z,7.67
2023-01-15T11:28:59.539Z,7.66
2023-01-15T11:29:59.542Z,7.69
2023-01-15T11:30:59.628Z,7.56
2023-01-15T11:31:59.499Z,7.63
2023-01-15T11:32:59.502Z,7.57
2023-01-15T11:33:59.488Z,7.57
2023-01-15T11:34:59.497Z,7.63
2023-01-15T11:35:59.484Z,7.60
2023-01-15T11:36:59.502Z,7.58
2023-01-15T11:37:59.495Z,7.63
2023-01-15T11:38:59.479Z,7.56
2023-01-15T11:39:59.475Z,7.66
2023-01-15T11:40:59.620Z,7.63
2023-01-15T11:41:59.475Z,7.61
2023-01-15T11:42:59.444Z,7.61
2023-01-15T11:43:59.480Z,7.57
2023-01-15T11:44:59.430Z,7.58
2023-01-15T11:45:59.438Z,7.60
2023-01-15T11:46:59.431Z,7.58
2023-01-15T11:47:59.415Z,7.58
2023-01-15T11:48:59.408Z,7.61
2023-01-15T11:49:59.416Z,7.56
2023-01-15T11:50:59.405Z,7.57
2023-01-15T11:51:59.405Z,7.51
2023-01-15T11:52:59.395Z,7.66
2023-01-15T11:53:59.383Z,7.66
2023-01-15T11:54:59.380Z,7.58
2023-01-15T11:55:59.372Z,7.58
2023-01-15T11:56:59.375Z,7.63
2023-01-15T11:57:59.379Z,7.66
2023-01-15T11:58:59.356Z,7.70
2023-01-15T11:59:59.352Z,7.61
2023-01-15T12:00:59.438Z,7.66
2023-01-15T12:01:59.343Z,7.58
2023-01-15T12:02:59.339Z,7.50
2023-01-15T12:03:59.538Z,7.61
2023-01-15T12:04:59.327Z,7.66
2023-01-15T12:05:59.336Z,7.60
2023-01-15T12:06:59.320Z,7.63
2023-01-15T12:07:59.311Z,7.61
2023-01-15T12:08:59.308Z,7.61
2023-01-15T12:09:59.301Z,7.66
2023-01-15T12:10:59.295Z,7.70
2023-01-15T12:11:59.294Z,7.63
2023-01-15T12:12:59.313Z,7.63
2023-01-15T12:13:59.279Z,7.61
2023-01-15T12:14:59.276Z,7.54
2023-01-15T12:15:59.271Z,7.67
2023-01-15T12:16:59.264Z,7.63
2023-01-15T12:17:59.258Z,7.67
2023-01-15T12:18:59.610Z,7.66
2023-01-15T12:19:59.249Z,7.61
2023-01-15T12:20:59.256Z,7.69
2023-01-15T12:21:59.240Z,7.61
2023-01-15T12:22:59.233Z,7.54
2023-01-15T12:23:59.249Z,7.66
2023-01-15T12:24:59.230Z,7.48
2023-01-15T12:25:59.220Z,7.53
2023-01-15T12:26:59.215Z,7.48
2023-01-15T12:27:59.210Z,7.51
2023-01-15T12:28:59.204Z,7.47
2023-01-15T12:29:59.193Z,7.48
2023-01-15T12:30:59.264Z,7.50
2023-01-15T12:31:59.187Z,7.50
2023-01-15T12:32:59.180Z,7.48
2023-01-15T12:33:59.175Z,7.50
2023-01-15T12:34:59.174Z,7.48
2023-01-15T12:35:59.167Z,7.50
2023-01-15T12:36:59.178Z,7.50
2023-01-15T12:37:59.168Z,7.47
2023-01-15T12:38:59.147Z,7.47
2023-01-15T12:39:59.169Z,7.51
2023-01-15T12:40:59.138Z,7.48
2023-01-15T12:41:59.129Z,7.53
2023-01-15T12:42:59.127Z,7.43
2023-01-15T12:43:59.121Z,7.53
2023-01-15T12:44:59.117Z,7.50
2023-01-15T12:45:59.111Z,7.53
2023-01-15T12:46:59.201Z,7.58
2023-01-15T12:47:59.099Z,7.56
2023-01-15T12:48:59.096Z,7.66
2023-01-15T12:49:59.090Z,7.51
2023-01-15T12:50:59.087Z,7.48
2023-01-15T12:51:59.085Z,7.48
2023-01-15T12:52:59.076Z,7.57
2023-01-15T12:53:59.074Z,7.56
2023-01-15T12:54:59.067Z,7.58
2023-01-15T12:55:59.068Z,7.50
2023-01-15T12:57:00.546Z,7.51
2023-01-15T12:57:59.046Z,7.48
2023-01-15T12:58:59.043Z,7.66
2023-01-15T12:59:59.042Z,7.61
2023-01-15T13:00:59.175Z,7.58
2023-01-15T13:01:59.205Z,7.58
2023-01-15T13:02:59.026Z,7.61
2023-01-15T13:03:59.019Z,7.56
2023-01-15T13:04:59.037Z,7.57
2023-01-15T13:05:59.005Z,7.60
2023-01-15T13:06:59.007Z,7.54
2023-01-15T13:07:58.994Z,7.58
2023-01-15T13:08:58.991Z,7.61
2023-01-15T13:09:58.997Z,7.58
2023-01-15T13:10:58.979Z,7.61
2023-01-15T13:11:58.978Z,7.61
2023-01-15T13:12:58.969Z,7.60
2023-01-15T13:13:58.968Z,7.60
2023-01-15T13:14:58.959Z,7.58
2023-01-15T13:15:58.978Z,7.63
2023-01-15T13:16:58.954Z,7.58
2023-01-15T13:17:58.946Z,7.57